Terminal Aerodrome Forecast
Issued by NWS Memphis, TN

Home | Current Version | Previous Version | Text Only | Print | Product List | Glossary On
Versions: 1 2 3 4 5 6 7 8 9 10 11 12 13 14 15
000
FTUS44 KMEG 011700
TAFMKL
TAF
KMKL 011720Z 0118/0218 18009KT P6SM SCT040
     FM020000 00000KT P6SM SCT100
     FM021000 16006KT P6SM BKN045 BKN100
     FM021500 19008KT P6SM VCSH BKN045=

USA.gov is the U.S. government's official web portal to all federal, state and local government web resources and services.